sensor_id;sensor_type;location;lat;lon;timestamp;temperature;humidity
4411;DHT22;2218;51.408;7.208;2023-04-15T00:02:20;19.60;31.70
4411;DHT22;2218;51.408;7.208;2023-04-15T00:04:47;19.60;31.70
4411;DHT22;2218;51.408;7.208;2023-04-15T00:07:14;19.60;31.80
4411;DHT22;2218;51.408;7.208;2023-04-15T00:09:42;19.60;31.80
4411;DHT22;2218;51.408;7.208;2023-04-15T00:12:10;19.50;31.70
4411;DHT22;2218;51.408;7.208;2023-04-15T00:14:37;19.60;31.80
4411;DHT22;2218;51.408;7.208;2023-04-15T00:17:04;19.50;31.70
4411;DHT22;2218;51.408;7.208;2023-04-15T00:19:33;19.50;31.70
4411;DHT22;2218;51.408;7.208;2023-04-15T00:22:00;19.50;31.70
4411;DHT22;2218;51.408;7.208;2023-04-15T00:24:26;19.50;31.70
4411;DHT22;2218;51.408;7.208;2023-04-15T00:26:53;19.50;31.70
4411;DHT22;2218;51.408;7.208;2023-04-15T00:29:20;19.50;31.80
4411;DHT22;2218;51.408;7.208;2023-04-15T00:31:47;19.50;31.80
4411;DHT22;2218;51.408;7.208;2023-04-15T00:34:14;19.50;31.80
4411;DHT22;2218;51.408;7.208;2023-04-15T00:36:43;19.50;31.80
4411;DHT22;2218;51.408;7.208;2023-04-15T00:39:11;19.50;31.90
4411;DHT22;2218;51.408;7.208;2023-04-15T00:41:38;19.50;31.90
4411;DHT22;2218;51.408;7.208;2023-04-15T00:44:05;19.50;31.90
4411;DHT22;2218;51.408;7.208;2023-04-15T00:46:34;19.50;31.90
4411;DHT22;2218;51.408;7.208;2023-04-15T00:49:04;19.50;31.90
4411;DHT22;2218;51.408;7.208;2023-04-15T00:51:32;19.50;32.00
4411;DHT22;2218;51.408;7.208;2023-04-15T00:54:03;19.50;32.00
4411;DHT22;2218;51.408;7.208;2023-04-15T00:56:34;19.40;31.90
4411;DHT22;2218;51.408;7.208;2023-04-15T00:59:03;19.50;32.00
4411;DHT22;2218;51.408;7.208;2023-04-15T01:01:30;19.40;31.90
4411;DHT22;2218;51.408;7.208;2023-04-15T01:04:00;19.40;32.50
4411;DHT22;2218;51.408;7.208;2023-04-15T01:06:29;19.40;32.00
4411;DHT22;2218;51.408;7.208;2023-04-15T01:08:57;19.40;32.00
4411;DHT22;2218;51.408;7.208;2023-04-15T01:11:26;19.40;32.00
4411;DHT22;2218;51.408;7.208;2023-04-15T01:13:54;19.40;32.10
4411;DHT22;2218;51.408;7.208;2023-04-15T01:16:24;19.40;32.10
4411;DHT22;2218;51.408;7.208;2023-04-15T01:18:53;19.40;32.10
4411;DHT22;2218;51.408;7.208;2023-04-15T01:21:21;19.40;32.10
4411;DHT22;2218;51.408;7.208;2023-04-15T01:23:50;19.40;32.20
4411;DHT22;2218;51.408;7.208;2023-04-15T01:26:20;19.40;32.20
4411;DHT22;2218;51.408;7.208;2023-04-15T01:28:48;19.40;32.20
4411;DHT22;2218;51.408;7.208;2023-04-15T01:31:16;19.40;32.20
4411;DHT22;2218;51.408;7.208;2023-04-15T01:33:43;19.40;32.20
4411;DHT22;2218;51.408;7.208;2023-04-15T01:36:10;19.40;32.30
4411;DHT22;2218;51.408;7.208;2023-04-15T01:38:37;19.40;32.30
4411;DHT22;2218;51.408;7.208;2023-04-15T01:41:04;19.40;32.30
4411;DHT22;2218;51.408;7.208;2023-04-15T01:43:33;19.40;32.30
4411;DHT22;2218;51.408;7.208;2023-04-15T01:46:01;19.30;32.30
4411;DHT22;2218;51.408;7.208;2023-04-15T01:48:31;19.30;32.30
4411;DHT22;2218;51.408;7.208;2023-04-15T01:50:58;19.40;32.40
4411;DHT22;2218;51.408;7.208;2023-04-15T01:53:26;19.30;32.30
4411;DHT22;2218;51.408;7.208;2023-04-15T01:55:53;19.30;32.30
4411;DHT22;2218;51.408;7.208;2023-04-15T01:58:20;19.30;32.30
4411;DHT22;2218;51.408;7.208;2023-04-15T02:00:48;19.30;32.30
4411;DHT22;2218;51.408;7.208;2023-04-15T02:03:15;19.30;32.40
4411;DHT22;2218;51.408;7.208;2023-04-15T02:05:42;19.30;32.40
4411;DHT22;2218;51.408;7.208;2023-04-15T02:08:09;19.30;32.40
4411;DHT22;2218;51.408;7.208;2023-04-15T02:10:37;19.30;32.40
4411;DHT22;2218;51.408;7.208;2023-04-15T02:13:04;19.30;32.40
4411;DHT22;2218;51.408;7.208;2023-04-15T02:15:31;19.30;32.50
4411;DHT22;2218;51.408;7.208;2023-04-15T02:18:00;19.30;32.50
4411;DHT22;2218;51.408;7.208;2023-04-15T02:20:27;19.30;32.50
4411;DHT22;2218;51.408;7.208;2023-04-15T02:22:57;19.30;32.50
4411;DHT22;2218;51.408;7.208;2023-04-15T02:25:23;19.30;32.50
4411;DHT22;2218;51.408;7.208;2023-04-15T02:27:50;19.30;32.50
4411;DHT22;2218;51.408;7.208;2023-04-15T02:30:18;19.30;32.50
4411;DHT22;2218;51.408;7.208;2023-04-15T02:32:45;19.30;32.50
4411;DHT22;2218;51.408;7.208;2023-04-15T02:35:14;19.30;32.60
4411;DHT22;2218;51.408;7.208;2023-04-15T02:37:44;19.30;32.60
4411;DHT22;2218;51.408;7.208;2023-04-15T02:40:12;19.30;32.70
4411;DHT22;2218;51.408;7.208;2023-04-15T02:42:39;19.30;32.60
4411;DHT22;2218;51.408;7.208;2023-04-15T02:45:11;19.30;32.60
4411;DHT22;2218;51.408;7.208;2023-04-15T02:47:39;19.30;32.60
4411;DHT22;2218;51.408;7.208;2023-04-15T02:50:09;19.30;32.60
4411;DHT22;2218;51.408;7.208;2023-04-15T02:52:41;19.20;32.60
4411;DHT22;2218;51.408;7.208;2023-04-15T02:55:09;19.20;32.60
4411;DHT22;2218;51.408;7.208;2023-04-15T02:57:37;19.20;32.60
4411;DHT22;2218;51.408;7.208;2023-04-15T03:00:08;19.20;32.60
4411;DHT22;2218;51.408;7.208;2023-04-15T03:02:39;19.20;32.70
4411;DHT22;2218;51.408;7.208;2023-04-15T03:05:11;19.20;32.70
4411;DHT22;2218;51.408;7.208;2023-04-15T03:07:44;19.20;32.70
4411;DHT22;2218;51.408;7.208;2023-04-15T03:10:11;19.20;32.60
4411;DHT22;2218;51.408;7.208;2023-04-15T03:12:39;19.20;32.70
4411;DHT22;2218;51.408;7.208;2023-04-15T03:15:09;19.20;32.70
4411;DHT22;2218;51.408;7.208;2023-04-15T03:17:40;19.20;32.80
4411;DHT22;2218;51.408;7.208;2023-04-15T03:20:08;19.20;32.70
4411;DHT22;2218;51.408;7.208;2023-04-15T03:22:35;19.20;32.70
4411;DHT22;2218;51.408;7.208;2023-04-15T03:25:05;19.20;32.80
4411;DHT22;2218;51.408;7.208;2023-04-15T03:27:32;19.20;32.80
4411;DHT22;2218;51.408;7.208;2023-04-15T03:30:01;19.20;32.80
4411;DHT22;2218;51.408;7.208;2023-04-15T03:32:31;19.20;32.80
4411;DHT22;2218;51.408;7.208;2023-04-15T03:34:58;19.10;32.70
4411;DHT22;2218;51.408;7.208;2023-04-15T03:37:25;19.20;32.80
4411;DHT22;2218;51.408;7.208;2023-04-15T03:39:51;19.20;32.80
4411;DHT22;2218;51.408;7.208;2023-04-15T03:42:20;19.10;32.80
4411;DHT22;2218;51.408;7.208;2023-04-15T03:44:47;19.10;32.80
4411;DHT22;2218;51.408;7.208;2023-04-15T03:47:14;19.10;32.80
4411;DHT22;2218;51.408;7.208;2023-04-15T03:49:41;19.10;32.80
4411;DHT22;2218;51.408;7.208;2023-04-15T03:52:08;19.10;32.90
4411;DHT22;2218;51.408;7.208;2023-04-15T03:54:34;19.10;32.90
4411;DHT22;2218;51.408;7.208;2023-04-15T03:57:02;19.10;32.90
4411;DHT22;2218;51.408;7.208;2023-04-15T03:59:30;19.10;32.90
4411;DHT22;2218;51.408;7.208;2023-04-15T04:01:57;19.10;32.90
4411;DHT22;2218;51.408;7.208;2023-04-15T04:04:24;19.10;33.00
4411;DHT22;2218;51.408;7.208;2023-04-15T04:06:51;19.10;33.00
4411;DHT22;2218;51.408;7.208;2023-04-15T04:09:17;19.10;33.00
4411;DHT22;2218;51.408;7.208;2023-04-15T04:11:45;19.10;33.00
4411;DHT22;2218;51.408;7.208;2023-04-15T04:14:12;19.10;33.00
4411;DHT22;2218;51.408;7.208;2023-04-15T04:16:40;19.10;33.00
4411;DHT22;2218;51.408;7.208;2023-04-15T04:19:07;19.10;33.10
4411;DHT22;2218;51.408;7.208;2023-04-15T04:21:34;19.10;33.10
4411;DHT22;2218;51.408;7.208;2023-04-15T04:24:01;19.10;33.10
4411;DHT22;2218;51.408;7.208;2023-04-15T04:26:28;19.10;33.10
4411;DHT22;2218;51.408;7.208;2023-04-15T04:28:55;19.10;33.10
4411;DHT22;2218;51.408;7.208;2023-04-15T04:31:21;19.10;33.20
4411;DHT22;2218;51.408;7.208;2023-04-15T04:33:50;19.00;33.10
4411;DHT22;2218;51.408;7.208;2023-04-15T04:36:17;19.00;33.10
4411;DHT22;2218;51.408;7.208;2023-04-15T04:38:44;19.00;33.10
4411;DHT22;2218;51.408;7.208;2023-04-15T04:41:11;19.00;33.20
4411;DHT22;2218;51.408;7.208;2023-04-15T04:43:38;19.00;33.10
4411;DHT22;2218;51.408;7.208;2023-04-15T04:46:04;19.00;33.20
4411;DHT22;2218;51.408;7.208;2023-04-15T04:48:31;19.00;33.20
4411;DHT22;2218;51.408;7.208;2023-04-15T04:51:00;19.00;33.20
4411;DHT22;2218;51.408;7.208;2023-04-15T04:53:27;19.00;33.20
4411;DHT22;2218;51.408;7.208;2023-04-15T04:55:54;19.00;33.20
4411;DHT22;2218;51.408;7.208;2023-04-15T04:58:21;19.00;33.20
4411;DHT22;2218;51.408;7.208;2023-04-15T05:00:47;19.00;33.20
4411;DHT22;2218;51.408;7.208;2023-04-15T05:03:15;19.00;33.30
4411;DHT22;2218;51.408;7.208;2023-04-15T05:05:41;19.00;33.20
4411;DHT22;2218;51.408;7.208;2023-04-15T05:08:10;19.00;33.30
4411;DHT22;2218;51.408;7.208;2023-04-15T05:10:36;19.00;33.30
4411;DHT22;2218;51.408;7.208;2023-04-15T05:13:03;19.00;33.30
4411;DHT22;2218;51.408;7.208;2023-04-15T05:15:31;19.00;33.30
4411;DHT22;2218;51.408;7.208;2023-04-15T05:17:59;19.00;33.30
4411;DHT22;2218;51.408;7.208;2023-04-15T05:20:27;19.00;33.30
4411;DHT22;2218;51.408;7.208;2023-04-15T05:22:54;19.00;33.40
4411;DHT22;2218;51.408;7.208;2023-04-15T05:25:22;19.00;33.40
4411;DHT22;2218;51.408;7.208;2023-04-15T05:27:49;19.00;33.40
4411;DHT22;2218;51.408;7.208;2023-04-15T05:30:16;19.00;33.40
4411;DHT22;2218;51.408;7.208;2023-04-15T05:32:43;19.00;33.40
4411;DHT22;2218;51.408;7.208;2023-04-15T05:35:10;19.00;33.40
4411;DHT22;2218;51.408;7.208;2023-04-15T05:37:37;19.00;33.40
4411;DHT22;2218;51.408;7.208;2023-04-15T05:40:05;19.00;33.40
4411;DHT22;2218;51.408;7.208;2023-04-15T05:42:36;19.00;33.50
4411;DHT22;2218;51.408;7.208;2023-04-15T05:45:04;19.00;33.50
4411;DHT22;2218;51.408;7.208;2023-04-15T05:47:34;19.00;33.50
4411;DHT22;2218;51.408;7.208;2023-04-15T05:50:01;18.90;33.50
4411;DHT22;2218;51.408;7.208;2023-04-15T05:52:28;19.00;33.60
4411;DHT22;2218;51.408;7.208;2023-04-15T05:54:55;19.00;33.60
4411;DHT22;2218;51.408;7.208;2023-04-15T05:57:22;19.00;33.60
4411;DHT22;2218;51.408;7.208;2023-04-15T05:59:50;19.00;33.60
4411;DHT22;2218;51.408;7.208;2023-04-15T06:02:18;19.00;33.60
4411;DHT22;2218;51.408;7.208;2023-04-15T06:04:45;19.00;33.70
4411;DHT22;2218;51.408;7.208;2023-04-15T06:07:11;19.00;33.70
4411;DHT22;2218;51.408;7.208;2023-04-15T06:09:38;19.00;33.70
4411;DHT22;2218;51.408;7.208;2023-04-15T06:12:05;19.00;33.70
4411;DHT22;2218;51.408;7.208;2023-04-15T06:14:36;19.00;33.70
4411;DHT22;2218;51.408;7.208;2023-04-15T06:17:05;19.00;33.70
4411;DHT22;2218;51.408;7.208;2023-04-15T06:19:32;19.00;33.70
4411;DHT22;2218;51.408;7.208;2023-04-15T06:21:59;19.00;33.70
4411;DHT22;2218;51.408;7.208;2023-04-15T06:24:26;19.00;33.80
4411;DHT22;2218;51.408;7.208;2023-04-15T06:26:53;19.00;33.70
4411;DHT22;2218;51.408;7.208;2023-04-15T06:29:20;19.00;33.80
4411;DHT22;2218;51.408;7.208;2023-04-15T06:31:48;19.00;33.80
4411;DHT22;2218;51.408;7.208;2023-04-15T06:34:16;19.00;33.80
4411;DHT22;2218;51.408;7.208;2023-04-15T06:36:43;18.90;33.70
4411;DHT22;2218;51.408;7.208;2023-04-15T06:39:11;19.00;33.80
4411;DHT22;2218;51.408;7.208;2023-04-15T06:41:38;19.00;33.80
4411;DHT22;2218;51.408;7.208;2023-04-15T06:44:05;19.00;33.80
4411;DHT22;2218;51.408;7.208;2023-04-15T06:46:32;19.00;33.80
4411;DHT22;2218;51.408;7.208;2023-04-15T06:48:58;19.00;33.80
4411;DHT22;2218;51.408;7.208;2023-04-15T06:51:27;19.00;33.80
4411;DHT22;2218;51.408;7.208;2023-04-15T06:53:54;19.00;33.80
4411;DHT22;2218;51.408;7.208;2023-04-15T06:56:21;19.00;33.90
4411;DHT22;2218;51.408;7.208;2023-04-15T06:58:48;19.00;33.90
4411;DHT22;2218;51.408;7.208;2023-04-15T07:01:15;19.00;33.90
4411;DHT22;2218;51.408;7.208;2023-04-15T07:03:42;19.00;33.90
4411;DHT22;2218;51.408;7.208;2023-04-15T07:06:09;19.00;33.90
4411;DHT22;2218;51.408;7.208;2023-04-15T07:08:37;19.00;33.90
4411;DHT22;2218;51.408;7.208;2023-04-15T07:11:04;19.00;33.90
4411;DHT22;2218;51.408;7.208;2023-04-15T07:13:32;19.00;34.00
4411;DHT22;2218;51.408;7.208;2023-04-15T07:16:00;19.00;34.00
4411;DHT22;2218;51.408;7.208;2023-04-15T07:18:27;19.00;34.00
4411;DHT22;2218;51.408;7.208;2023-04-15T07:20:53;19.00;34.10
4411;DHT22;2218;51.408;7.208;2023-04-15T07:23:20;19.00;34.00
4411;DHT22;2218;51.408;7.208;2023-04-15T07:25:49;19.00;34.10
4411;DHT22;2218;51.408;7.208;2023-04-15T07:28:16;19.00;34.10
4411;DHT22;2218;51.408;7.208;2023-04-15T07:30:43;19.00;34.10
4411;DHT22;2218;51.408;7.208;2023-04-15T07:33:10;19.00;34.10
4411;DHT22;2218;51.408;7.208;2023-04-15T07:35:37;19.00;34.70
4411;DHT22;2218;51.408;7.208;2023-04-15T07:38:04;19.00;34.10
4411;DHT22;2218;51.408;7.208;2023-04-15T07:40:31;19.00;34.20
4411;DHT22;2218;51.408;7.208;2023-04-15T07:43:00;19.00;34.20
4411;DHT22;2218;51.408;7.208;2023-04-15T07:45:27;19.00;34.20
4411;DHT22;2218;51.408;7.208;2023-04-15T07:47:54;19.00;34.20
4411;DHT22;2218;51.408;7.208;2023-04-15T07:50:22;19.00;34.30
4411;DHT22;2218;51.408;7.208;2023-04-15T07:52:49;19.00;34.30
4411;DHT22;2218;51.408;7.208;2023-04-15T07:55:17;19.00;34.30
4411;DHT22;2218;51.408;7.208;2023-04-15T07:57:47;19.00;34.30
4411;DHT22;2218;51.408;7.208;2023-04-15T08:00:16;19.00;34.30
4411;DHT22;2218;51.408;7.208;2023-04-15T08:02:44;19.00;34.30
4411;DHT22;2218;51.408;7.208;2023-04-15T08:05:13;19.00;34.40
4411;DHT22;2218;51.408;7.208;2023-04-15T08:07:40;19.00;34.40
4411;DHT22;2218;51.408;7.208;2023-04-15T08:10:07;19.00;34.40
4411;DHT22;2218;51.408;7.208;2023-04-15T08:12:35;19.00;34.40
4411;DHT22;2218;51.408;7.208;2023-04-15T08:15:02;19.00;34.50
4411;DHT22;2218;51.408;7.208;2023-04-15T08:17:31;19.00;34.50
4411;DHT22;2218;51.408;7.208;2023-04-15T08:19:58;19.00;34.40
4411;DHT22;2218;51.408;7.208;2023-04-15T08:22:25;19.00;34.50
4411;DHT22;2218;51.408;7.208;2023-04-15T08:24:53;19.00;34.50
4411;DHT22;2218;51.408;7.208;2023-04-15T08:27:19;19.00;34.50
4411;DHT22;2218;51.408;7.208;2023-04-15T08:29:46;19.00;34.50
4411;DHT22;2218;51.408;7.208;2023-04-15T08:32:13;19.00;34.60
4411;DHT22;2218;51.408;7.208;2023-04-15T08:34:42;19.00;34.60
4411;DHT22;2218;51.408;7.208;2023-04-15T08:37:09;19.00;34.60
4411;DHT22;2218;51.408;7.208;2023-04-15T08:39:36;19.10;34.70
4411;DHT22;2218;51.408;7.208;2023-04-15T08:42:04;19.00;34.60
4411;DHT22;2218;51.408;7.208;2023-04-15T08:44:37;19.10;34.70
4411;DHT22;2218;51.408;7.208;2023-04-15T08:47:07;19.10;34.80
4411;DHT22;2218;51.408;7.208;2023-04-15T08:49:38;19.10;34.80
4411;DHT22;2218;51.408;7.208;2023-04-15T08:52:08;19.10;34.80
4411;DHT22;2218;51.408;7.208;2023-04-15T08:54:35;19.10;34.80
4411;DHT22;2218;51.408;7.208;2023-04-15T08:57:03;19.10;34.80
4411;DHT22;2218;51.408;7.208;2023-04-15T08:59:30;19.10;34.80
4411;DHT22;2218;51.408;7.208;2023-04-15T09:01:58;19.10;34.80
4411;DHT22;2218;51.408;7.208;2023-04-15T09:04:26;19.10;34.90
4411;DHT22;2218;51.408;7.208;2023-04-15T09:06:53;19.10;34.90
4411;DHT22;2218;51.408;7.208;2023-04-15T09:09:23;19.10;34.90
4411;DHT22;2218;51.408;7.208;2023-04-15T09:11:50;19.10;34.90
4411;DHT22;2218;51.408;7.208;2023-04-15T09:14:16;19.00;34.90
4411;DHT22;2218;51.408;7.208;2023-04-15T09:16:56;19.10;35.00
4411;DHT22;2218;51.408;7.208;2023-04-15T09:19:25;19.00;34.90
4411;DHT22;2218;51.408;7.208;2023-04-15T09:21:53;19.00;34.90
4411;DHT22;2218;51.408;7.208;2023-04-15T09:24:23;19.10;35.00
4411;DHT22;2218;51.408;7.208;2023-04-15T09:26:52;19.10;35.00
4411;DHT22;2218;51.408;7.208;2023-04-15T09:29:24;19.10;35.10
4411;DHT22;2218;51.408;7.208;2023-04-15T09:31:52;19.10;35.00
4411;DHT22;2218;51.408;7.208;2023-04-15T09:34:19;19.10;35.10
4411;DHT22;2218;51.408;7.208;2023-04-15T09:36:53;19.10;35.10
4411;DHT22;2218;51.408;7.208;2023-04-15T09:39:23;19.00;35.10
4411;DHT22;2218;51.408;7.208;2023-04-15T09:42:04;19.00;35.10
4411;DHT22;2218;51.408;7.208;2023-04-15T09:44:32;19.00;35.10
4411;DHT22;2218;51.408;7.208;2023-04-15T09:46:59;19.00;35.10
4411;DHT22;2218;51.408;7.208;2023-04-15T09:49:26;19.00;35.10
4411;DHT22;2218;51.408;7.208;2023-04-15T09:51:57;19.00;35.10
4411;DHT22;2218;51.408;7.208;2023-04-15T09:54:33;19.00;35.10
4411;DHT22;2218;51.408;7.208;2023-04-15T09:57:06;19.00;35.20
4411;DHT22;2218;51.408;7.208;2023-04-15T09:59:33;19.00;35.20
4411;DHT22;2218;51.408;7.208;2023-04-15T10:02:03;19.00;35.20
4411;DHT22;2218;51.408;7.208;2023-04-15T10:04:34;19.00;35.30
4411;DHT22;2218;51.408;7.208;2023-04-15T10:07:03;19.00;35.30
4411;DHT22;2218;51.408;7.208;2023-04-15T10:09:32;19.00;35.30
4411;DHT22;2218;51.408;7.208;2023-04-15T10:12:02;19.00;35.30
4411;DHT22;2218;51.408;7.208;2023-04-15T10:14:32;19.00;35.30
4411;DHT22;2218;51.408;7.208;2023-04-15T10:17:01;19.00;35.30
4411;DHT22;2218;51.408;7.208;2023-04-15T10:19:32;19.00;35.30
4411;DHT22;2218;51.408;7.208;2023-04-15T10:22:02;19.00;35.30
4411;DHT22;2218;51.408;7.208;2023-04-15T10:24:30;19.00;35.30
4411;DHT22;2218;51.408;7.208;2023-04-15T10:26:59;19.00;35.40
4411;DHT22;2218;51.408;7.208;2023-04-15T10:29:29;19.00;35.50
4411;DHT22;2218;51.408;7.208;2023-04-15T10:31:56;19.00;35.50
4411;DHT22;2218;51.408;7.208;2023-04-15T10:34:26;19.00;35.50
4411;DHT22;2218;51.408;7.208;2023-04-15T10:36:54;19.00;35.50
4411;DHT22;2218;51.408;7.208;2023-04-15T10:39:37;19.00;36.00
4411;DHT22;2218;51.408;7.208;2023-04-15T10:42:08;19.00;35.60
4411;DHT22;2218;51.408;7.208;2023-04-15T10:44:37;19.00;35.60
4411;DHT22;2218;51.408;7.208;2023-04-15T10:47:09;19.00;35.60
4411;DHT22;2218;51.408;7.208;2023-04-15T10:49:45;19.00;35.70
4411;DHT22;2218;51.408;7.208;2023-04-15T10:52:15;19.00;35.70
4411;DHT22;2218;51.408;7.208;2023-04-15T10:54:43;19.00;35.70
4411;DHT22;2218;51.408;7.208;2023-04-15T10:57:20;19.00;35.70
4411;DHT22;2218;51.408;7.208;2023-04-15T11:00:11;18.90;35.70
4411;DHT22;2218;51.408;7.208;2023-04-15T11:02:44;18.90;35.60
4411;DHT22;2218;51.408;7.208;2023-04-15T11:05:13;19.00;35.80
4411;DHT22;2218;51.408;7.208;2023-04-15T11:07:49;19.00;35.80
4411;DHT22;2218;51.408;7.208;2023-04-15T11:10:52;18.90;35.70
4411;DHT22;2218;51.408;7.208;2023-04-15T11:13:22;18.90;35.70
4411;DHT22;2218;51.408;7.208;2023-04-15T11:15:56;18.90;35.80
4411;DHT22;2218;51.408;7.208;2023-04-15T11:18:27;18.90;35.80
4411;DHT22;2218;51.408;7.208;2023-04-15T11:21:02;18.90;35.80
4411;DHT22;2218;51.408;7.208;2023-04-15T11:23:35;18.90;35.80
4411;DHT22;2218;51.408;7.208;2023-04-15T11:26:05;18.90;35.80
4411;DHT22;2218;51.408;7.208;2023-04-15T11:28:38;18.90;35.90
4411;DHT22;2218;51.408;7.208;2023-04-15T11:31:08;18.90;35.90
4411;DHT22;2218;51.408;7.208;2023-04-15T11:33:38;18.90;35.90
4411;DHT22;2218;51.408;7.208;2023-04-15T11:36:11;18.90;35.90
4411;DHT22;2218;51.408;7.208;2023-04-15T11:38:41;18.90;35.90
4411;DHT22;2218;51.408;7.208;2023-04-15T11:41:10;18.90;35.90
4411;DHT22;2218;51.408;7.208;2023-04-15T11:43:38;18.90;36.00
4411;DHT22;2218;51.408;7.208;2023-04-15T11:46:06;18.90;36.00
4411;DHT22;2218;51.408;7.208;2023-04-15T11:48:34;18.90;36.00
4411;DHT22;2218;51.408;7.208;2023-04-15T11:51:03;18.90;36.00
4411;DHT22;2218;51.408;7.208;2023-04-15T11:53:39;18.90;36.00
4411;DHT22;2218;51.408;7.208;2023-04-15T11:56:09;18.90;36.10
4411;DHT22;2218;51.408;7.208;2023-04-15T11:58:38;18.90;36.00
4411;DHT22;2218;51.408;7.208;2023-04-15T12:01:06;18.90;36.10
4411;DHT22;2218;51.408;7.208;2023-04-15T12:03:38;18.90;36.10
4411;DHT22;2218;51.408;7.208;2023-04-15T12:06:11;18.90;36.10
4411;DHT22;2218;51.408;7.208;2023-04-15T12:08:49;18.90;36.10
4411;DHT22;2218;51.408;7.208;2023-04-15T12:11:18;18.90;36.10
4411;DHT22;2218;51.408;7.208;2023-04-15T12:13:49;18.90;36.10
4411;DHT22;2218;51.408;7.208;2023-04-15T12:16:16;18.90;36.10
4411;DHT22;2218;51.408;7.208;2023-04-15T12:18:45;18.90;36.10
4411;DHT22;2218;51.408;7.208;2023-04-15T12:21:13;18.90;36.20
4411;DHT22;2218;51.408;7.208;2023-04-15T12:23:47;18.90;36.20
4411;DHT22;2218;51.408;7.208;2023-04-15T12:26:15;18.90;36.20
4411;DHT22;2218;51.408;7.208;2023-04-15T12:28:42;18.90;36.20
4411;DHT22;2218;51.408;7.208;2023-04-15T12:31:11;18.90;36.30
4411;DHT22;2218;51.408;7.208;2023-04-15T12:33:40;18.90;36.20
4411;DHT22;2218;51.408;7.208;2023-04-15T12:36:07;18.90;36.20
4411;DHT22;2218;51.408;7.208;2023-04-15T12:38:34;18.90;36.30
4411;DHT22;2218;51.408;7.208;2023-04-15T12:41:01;18.90;36.30
4411;DHT22;2218;51.408;7.208;2023-04-15T12:43:28;18.90;36.30
4411;DHT22;2218;51.408;7.208;2023-04-15T12:45:55;18.90;36.30
4411;DHT22;2218;51.408;7.208;2023-04-15T12:48:23;18.90;36.30
4411;DHT22;2218;51.408;7.208;2023-04-15T12:50:50;18.90;36.40
4411;DHT22;2218;51.408;7.208;2023-04-15T12:53:17;18.80;36.30
4411;DHT22;2218;51.408;7.208;2023-04-15T12:55:44;18.90;36.40
4411;DHT22;2218;51.408;7.208;2023-04-15T12:58:11;18.90;36.40
4411;DHT22;2218;51.408;7.208;2023-04-15T13:00:38;18.90;36.50
4411;DHT22;2218;51.408;7.208;2023-04-15T13:03:05;18.90;36.40
4411;DHT22;2218;51.408;7.208;2023-04-15T13:05:33;18.90;36.50
4411;DHT22;2218;51.408;7.208;2023-04-15T13:08:01;18.90;36.50
4411;DHT22;2218;51.408;7.208;2023-04-15T13:10:29;18.90;36.50
4411;DHT22;2218;51.408;7.208;2023-04-15T13:12:56;18.90;36.50
4411;DHT22;2218;51.408;7.208;2023-04-15T13:15:23;18.80;36.50
4411;DHT22;2218;51.408;7.208;2023-04-15T13:17:50;18.90;36.60
4411;DHT22;2218;51.408;7.208;2023-04-15T13:20:17;18.80;37.10
4411;DHT22;2218;51.408;7.208;2023-04-15T13:22:45;18.80;36.60
4411;DHT22;2218;51.408;7.208;2023-04-15T13:25:12;18.80;36.60
4411;DHT22;2218;51.408;7.208;2023-04-15T13:27:39;18.80;36.70
4411;DHT22;2218;51.408;7.208;2023-04-15T13:30:07;18.80;36.70
4411;DHT22;2218;51.408;7.208;2023-04-15T13:32:35;18.80;36.70
4411;DHT22;2218;51.408;7.208;2023-04-15T13:35:02;18.80;36.70
4411;DHT22;2218;51.408;7.208;2023-04-15T13:37:30;18.80;37.20
4411;DHT22;2218;51.408;7.208;2023-04-15T13:39:58;18.80;36.80
4411;DHT22;2218;51.408;7.208;2023-04-15T13:42:25;18.80;36.80
4411;DHT22;2218;51.408;7.208;2023-04-15T13:44:52;18.80;36.80
4411;DHT22;2218;51.408;7.208;2023-04-15T13:47:20;18.80;36.80
4411;DHT22;2218;51.408;7.208;2023-04-15T13:49:47;18.80;36.80
4411;DHT22;2218;51.408;7.208;2023-04-15T13:52:14;18.80;36.80
4411;DHT22;2218;51.408;7.208;2023-04-15T13:54:40;18.80;36.80
4411;DHT22;2218;51.408;7.208;2023-04-15T13:57:09;18.80;36.90
4411;DHT22;2218;51.408;7.208;2023-04-15T13:59:36;18.80;36.90
4411;DHT22;2218;51.408;7.208;2023-04-15T14:02:03;18.80;36.90
4411;DHT22;2218;51.408;7.208;2023-04-15T14:04:30;18.80;37.00
4411;DHT22;2218;51.408;7.208;2023-04-15T14:06:57;18.80;37.00
4411;DHT22;2218;51.408;7.208;2023-04-15T14:09:24;18.80;37.00
4411;DHT22;2218;51.408;7.208;2023-04-15T14:11:52;18.80;37.10
4411;DHT22;2218;51.408;7.208;2023-04-15T14:14:20;18.80;37.10
4411;DHT22;2218;51.408;7.208;2023-04-15T14:16:47;18.80;37.10
4411;DHT22;2218;51.408;7.208;2023-04-15T14:19:14;18.80;37.10
4411;DHT22;2218;51.408;7.208;2023-04-15T14:21:41;18.80;37.10
4411;DHT22;2218;51.408;7.208;2023-04-15T14:24:08;18.80;37.20
4411;DHT22;2218;51.408;7.208;2023-04-15T14:26:36;18.80;37.10
4411;DHT22;2218;51.408;7.208;2023-04-15T14:29:03;18.80;37.20
4411;DHT22;2218;51.408;7.208;2023-04-15T14:31:31;18.80;37.20
4411;DHT22;2218;51.408;7.208;2023-04-15T14:33:58;18.80;37.20
4411;DHT22;2218;51.408;7.208;2023-04-15T14:36:25;18.80;37.20
4411;DHT22;2218;51.408;7.208;2023-04-15T14:38:52;18.80;37.30
4411;DHT22;2218;51.408;7.208;2023-04-15T14:41:20;18.80;37.30
4411;DHT22;2218;51.408;7.208;2023-04-15T14:43:47;18.80;37.30
4411;DHT22;2218;51.408;7.208;2023-04-15T14:46:15;18.80;37.30
4411;DHT22;2218;51.408;7.208;2023-04-15T14:48:43;18.80;37.40
4411;DHT22;2218;51.408;7.208;2023-04-15T14:51:10;18.80;37.40
4411;DHT22;2218;51.408;7.208;2023-04-15T14:53:37;18.80;37.40
4411;DHT22;2218;51.408;7.208;2023-04-15T14:56:04;18.80;37.50
4411;DHT22;2218;51.408;7.208;2023-04-15T14:58:31;18.80;37.50
4411;DHT22;2218;51.408;7.208;2023-04-15T15:00:59;18.80;37.50
4411;DHT22;2218;51.408;7.208;2023-04-15T15:03:26;18.80;37.50
4411;DHT22;2218;51.408;7.208;2023-04-15T15:05:54;18.80;37.60
4411;DHT22;2218;51.408;7.208;2023-04-15T15:08:22;18.80;37.60
4411;DHT22;2218;51.408;7.208;2023-04-15T15:10:49;18.80;37.60
4411;DHT22;2218;51.408;7.208;2023-04-15T15:13:16;18.80;37.60
4411;DHT22;2218;51.408;7.208;2023-04-15T15:15:44;18.80;38.30
4411;DHT22;2218;51.408;7.208;2023-04-15T15:18:13;18.80;37.70
4411;DHT22;2218;51.408;7.208;2023-04-15T15:20:41;18.80;37.70
4411;DHT22;2218;51.408;7.208;2023-04-15T15:23:09;18.80;37.70
4411;DHT22;2218;51.408;7.208;2023-04-15T15:25:36;18.80;37.80
4411;DHT22;2218;51.408;7.208;2023-04-15T15:28:04;18.80;37.70
4411;DHT22;2218;51.408;7.208;2023-04-15T15:30:31;18.80;37.80
4411;DHT22;2218;51.408;7.208;2023-04-15T15:32:58;18.80;37.80
4411;DHT22;2218;51.408;7.208;2023-04-15T15:35:25;18.80;37.90
4411;DHT22;2218;51.408;7.208;2023-04-15T15:37:52;18.80;37.80
4411;DHT22;2218;51.408;7.208;2023-04-15T15:40:21;18.80;37.80
4411;DHT22;2218;51.408;7.208;2023-04-15T15:42:48;18.70;37.80
4411;DHT22;2218;51.408;7.208;2023-04-15T15:45:15;18.70;37.90
4411;DHT22;2218;51.408;7.208;2023-04-15T15:47:43;18.70;37.90
4411;DHT22;2218;51.408;7.208;2023-04-15T15:50:11;18.70;37.90
4411;DHT22;2218;51.408;7.208;2023-04-15T15:52:38;18.70;37.90
4411;DHT22;2218;51.408;7.208;2023-04-15T15:55:06;18.70;38.00
4411;DHT22;2218;51.408;7.208;2023-04-15T15:57:35;18.70;38.00
4411;DHT22;2218;51.408;7.208;2023-04-15T16:00:03;18.70;38.00
4411;DHT22;2218;51.408;7.208;2023-04-15T16:02:30;18.70;38.00
4411;DHT22;2218;51.408;7.208;2023-04-15T16:04:58;18.70;38.00
4411;DHT22;2218;51.408;7.208;2023-04-15T16:07:24;18.70;38.10
4411;DHT22;2218;51.408;7.208;2023-04-15T16:09:52;18.70;38.10